Time;durP1;ratioP1;P1;durP2;ratioP2;P2;SDS_P1;SDS_P2;PMS_P1;PMS_P2;Temp;Humidity;BMP_temperature;BMP_pressure;BME280_temperature;BME280_humidity;BME280_pressure;Samples;Min_cycle;Max_cycle;Signal;HPM_P1;HPM_P2
2023/11/04 00:00:57;;;;;;;4.82;2.72;;;;;;;;;;5045994;28;20053;-58
2023/11/04 00:03:23;;;;;;;7.03;3.10;;;;;;;;;;5050883;28;20041;-58
2023/11/04 00:05:50;;;;;;;3.80;2.28;;;;;;;;;;5049902;28;20045;-58
2023/11/04 00:08:16;;;;;;;4.93;2.88;;;;;;;;;;5048213;28;20033;-59
2023/11/04 00:10:42;;;;;;;6.90;2.53;;;;;;;;;;5047245;28;20049;-58
2023/11/04 00:13:08;;;;;;;8.13;3.03;;;;;;;;;;5045028;28;20037;-59
2023/11/04 00:15:34;;;;;;;3.88;2.60;;;;;;;;;;5043195;28;20037;-59
2023/11/04 00:18:01;;;;;;;5.07;2.42;;;;;;;;;;5041620;28;20048;-58
2023/11/04 00:20:27;;;;;;;5.35;2.50;;;;;;;;;;5044080;28;20033;-59
2023/11/04 00:22:53;;;;;;;2.97;2.20;;;;;;;;;;5043129;28;20049;-58
2023/11/04 00:25:20;;;;;;;3.33;2.00;;;;;;;;;;5042377;28;20035;-57
2023/11/04 00:27:46;;;;;;;4.63;2.40;;;;;;;;;;5036743;28;20050;-59
2023/11/04 00:30:21;;;;;;;4.32;2.63;;;;;;;;;;5042819;28;20045;-59
2023/11/04 00:32:54;;;;;;;4.47;3.13;;;;;;;;;;5045079;28;20053;-59
2023/11/04 00:35:40;;;;;;;5.18;3.42;;;;;;;;;;5040200;28;20041;-59
2023/11/04 00:38:26;;;;;;;3.60;2.42;;;;;;;;;;5045009;28;20538;-60
2023/11/04 00:41:12;;;;;;;4.95;2.70;;;;;;;;;;5031903;28;20037;-58
2023/11/04 00:43:58;;;;;;;4.18;2.03;;;;;;;;;;5045187;28;20040;-58
2023/11/04 00:46:44;;;;;;;4.82;2.00;;;;;;;;;;5033300;28;20047;-58
2023/11/04 00:49:31;;;;;;;3.35;2.28;;;;;;;;;;5031166;28;20041;-58
2023/11/04 00:52:17;;;;;;;3.15;1.70;;;;;;;;;;5033400;28;20048;-58
2023/11/04 00:55:03;;;;;;;3.42;1.88;;;;;;;;;;5045673;28;20037;-58
2023/11/04 00:57:49;;;;;;;2.28;1.70;;;;;;;;;;5045500;28;20029;-58
2023/11/04 01:00:36;;;;;;;2.08;1.55;;;;;;;;;;5043803;28;20041;-58
2023/11/04 01:03:22;;;;;;;4.72;1.70;;;;;;;;;;5041243;28;20242;-58
2023/11/04 01:06:08;;;;;;;2.67;1.80;;;;;;;;;;5045559;28;20041;-58
2023/11/04 01:08:54;;;;;;;2.70;1.50;;;;;;;;;;5037499;28;20068;-58
2023/11/04 01:11:43;;;;;;;3.53;1.60;;;;;;;;;;5030543;28;20051;-58
2023/11/04 01:14:29;;;;;;;5.28;1.30;;;;;;;;;;5030514;28;20502;-58
2023/11/04 01:17:17;;;;;;;2.47;1.63;;;;;;;;;;5031840;28;20048;-58
2023/11/04 01:20:04;;;;;;;1.83;1.17;;;;;;;;;;5044026;28;20038;-59
2023/11/04 01:22:50;;;;;;;2.53;1.13;;;;;;;;;;5045949;28;20055;-58
2023/11/04 01:25:36;;;;;;;2.30;1.70;;;;;;;;;;5046849;28;20048;-58
2023/11/04 01:28:22;;;;;;;2.05;1.52;;;;;;;;;;5046258;28;20049;-58
2023/11/04 01:31:08;;;;;;;2.55;1.80;;;;;;;;;;5042493;28;20040;-58
2023/11/04 01:33:54;;;;;;;3.05;2.13;;;;;;;;;;5038969;28;20053;-59
2023/11/04 01:36:40;;;;;;;4.10;2.78;;;;;;;;;;5028187;28;20040;-59
2023/11/04 01:39:26;;;;;;;4.38;2.60;;;;;;;;;;5046371;28;20230;-58
2023/11/04 01:42:12;;;;;;;4.18;2.50;;;;;;;;;;5046195;28;20040;-58
2023/11/04 01:44:58;;;;;;;4.88;3.00;;;;;;;;;;5043758;28;20041;-59
2023/11/04 01:47:45;;;;;;;5.28;2.40;;;;;;;;;;5042212;28;20053;-58
2023/11/04 01:50:34;;;;;;;4.22;2.67;;;;;;;;;;5047292;28;20040;-60
2023/11/04 01:53:20;;;;;;;2.60;1.80;;;;;;;;;;5029169;28;20044;-58
2023/11/04 01:56:08;;;;;;;3.58;1.95;;;;;;;;;;5021828;28;20052;-59
2023/11/04 01:58:56;;;;;;;3.13;2.15;;;;;;;;;;5045581;28;20217;-58
2023/11/04 02:01:45;;;;;;;2.80;1.95;;;;;;;;;;5023128;28;20529;-58
2023/11/04 02:04:32;;;;;;;2.28;1.40;;;;;;;;;;5017709;28;20505;-59
2023/11/04 02:07:18;;;;;;;2.40;1.38;;;;;;;;;;5046026;28;20506;-59
2023/11/04 02:10:05;;;;;;;2.83;1.38;;;;;;;;;;5046155;28;20510;-59
2023/11/04 02:12:52;;;;;;;2.47;1.27;;;;;;;;;;5023336;28;20081;-59
2023/11/04 02:15:38;;;;;;;2.22;1.20;;;;;;;;;;5025277;28;20394;-59
2023/11/04 02:18:24;;;;;;;2.05;1.35;;;;;;;;;;5030900;28;20036;-59
2023/11/04 02:21:10;;;;;;;1.73;1.20;;;;;;;;;;5027856;28;20041;-61
2023/11/04 02:23:56;;;;;;;1.33;1.10;;;;;;;;;;5044673;28;20045;-58
2023/11/04 02:26:42;;;;;;;2.50;1.88;;;;;;;;;;5040423;28;20033;-58
2023/11/04 02:29:28;;;;;;;2.22;1.40;;;;;;;;;;5031020;28;20059;-57
2023/11/04 02:32:15;;;;;;;2.45;1.60;;;;;;;;;;5042397;28;20060;-59
2023/11/04 02:35:04;;;;;;;3.90;2.20;;;;;;;;;;5042303;28;20048;-59
2023/11/04 02:37:50;;;;;;;2.70;2.13;;;;;;;;;;5046264;28;20044;-58
2023/11/04 02:40:36;;;;;;;2.65;2.00;;;;;;;;;;5043400;28;20056;-58
2023/11/04 02:43:22;;;;;;;3.00;1.92;;;;;;;;;;5032273;28;20409;-58
2023/11/04 02:46:08;;;;;;;2.55;1.55;;;;;;;;;;5044609;28;20048;-59
2023/11/04 02:48:54;;;;;;;1.50;1.23;;;;;;;;;;5041349;28;20048;-59
2023/11/04 02:51:40;;;;;;;2.35;1.77;;;;;;;;;;5040825;28;20045;-58
2023/11/04 02:54:27;;;;;;;3.55;1.42;;;;;;;;;;5019211;28;20040;-58
2023/11/04 02:57:13;;;;;;;3.17;1.95;;;;;;;;;;5044362;28;20033;-59
2023/11/04 02:59:59;;;;;;;2.13;1.60;;;;;;;;;;5019784;28;20044;-58
2023/11/04 03:02:45;;;;;;;1.90;1.50;;;;;;;;;;5040192;28;20041;-59
2023/11/04 03:05:31;;;;;;;2.67;1.40;;;;;;;;;;5045693;28;20036;-59
2023/11/04 03:08:17;;;;;;;1.77;1.20;;;;;;;;;;5045518;28;20052;-58
2023/11/04 03:11:04;;;;;;;1.98;1.20;;;;;;;;;;5043670;28;20041;-58
2023/11/04 03:13:50;;;;;;;1.38;1.20;;;;;;;;;;5031349;28;20037;-58
2023/11/04 03:16:37;;;;;;;1.35;1.20;;;;;;;;;;5033239;28;20037;-57
2023/11/04 03:19:24;;;;;;;1.10;1.00;;;;;;;;;;5044381;28;20041;-58
2023/11/04 03:22:10;;;;;;;1.77;1.35;;;;;;;;;;5043586;28;20041;-59
2023/11/04 03:24:56;;;;;;;1.58;1.40;;;;;;;;;;5041812;28;20037;-59
2023/11/04 03:27:42;;;;;;;2.65;1.80;;;;;;;;;;5038188;28;20044;-59
2023/11/04 03:30:30;;;;;;;2.55;1.73;;;;;;;;;;5045716;28;20056;-59
2023/11/04 03:33:17;;;;;;;1.85;1.50;;;;;;;;;;5044919;28;20060;-59
2023/11/04 03:36:03;;;;;;;2.28;1.55;;;;;;;;;;5049397;28;20045;-58
2023/11/04 03:38:49;;;;;;;2.17;1.45;;;;;;;;;;5049093;28;20041;-59
2023/11/04 03:41:35;;;;;;;2.50;1.70;;;;;;;;;;5027187;28;20390;-58
2023/11/04 03:44:21;;;;;;;1.70;1.60;;;;;;;;;;5047215;28;20502;-59
2023/11/04 03:47:07;;;;;;;1.80;1.50;;;;;;;;;;5035361;28;20068;-60
2023/11/04 03:49:53;;;;;;;2.80;1.90;;;;;;;;;;5025234;28;20410;-59
2023/11/04 03:52:39;;;;;;;3.42;1.80;;;;;;;;;;5047197;28;20037;-58
2023/11/04 03:55:25;;;;;;;3.55;2.13;;;;;;;;;;5046308;28;20044;-59
2023/11/04 03:58:11;;;;;;;3.33;2.30;;;;;;;;;;5042671;28;20033;-58
2023/11/04 04:00:57;;;;;;;2.83;2.28;;;;;;;;;;5048661;28;20060;-58
2023/11/04 04:03:43;;;;;;;2.60;2.10;;;;;;;;;;5042793;28;20552;-60
2023/11/04 04:06:29;;;;;;;3.13;2.25;;;;;;;;;;5048856;28;20044;-58
2023/11/04 04:09:15;;;;;;;3.33;2.10;;;;;;;;;;5047094;28;20045;-59
2023/11/04 04:12:01;;;;;;;3.58;2.55;;;;;;;;;;5049125;28;20549;-59
2023/11/04 04:14:47;;;;;;;2.63;2.00;;;;;;;;;;5047621;28;20045;-59
2023/11/04 04:17:33;;;;;;;3.55;2.28;;;;;;;;;;5046407;28;20036;-58
2023/11/04 04:20:21;;;;;;;3.50;2.17;;;;;;;;;;5048740;28;20041;-58
2023/11/04 04:23:07;;;;;;;2.47;2.03;;;;;;;;;;5047431;28;20045;-58
2023/11/04 04:25:53;;;;;;;3.72;2.13;;;;;;;;;;5044666;28;20033;-60
2023/11/04 04:28:39;;;;;;;2.70;2.13;;;;;;;;;;5041428;28;20041;-60
2023/11/04 04:31:27;;;;;;;2.47;2.13;;;;;;;;;;5048308;28;20497;-58
2023/11/04 04:34:13;;;;;;;2.30;1.90;;;;;;;;;;5044972;28;20044;-58
2023/11/04 04:36:59;;;;;;;2.28;2.08;;;;;;;;;;5046466;28;20077;-58
2023/11/04 04:39:45;;;;;;;3.30;2.15;;;;;;;;;;5045143;28;20405;-58
2023/11/04 04:42:32;;;;;;;2.40;2.03;;;;;;;;;;5047233;28;20037;-58
2023/11/04 04:45:19;;;;;;;3.00;1.90;;;;;;;;;;5043257;28;20550;-59
2023/11/04 04:48:05;;;;;;;3.10;1.80;;;;;;;;;;5042625;28;20422;-58
2023/11/04 04:50:51;;;;;;;3.65;2.30;;;;;;;;;;5045118;28;20041;-59
2023/11/04 04:53:37;;;;;;;3.90;2.03;;;;;;;;;;5043485;28;20036;-58
2023/11/04 04:56:23;;;;;;;2.00;1.73;;;;;;;;;;5046802;28;20040;-60
2023/11/04 04:59:09;;;;;;;2.50;1.83;;;;;;;;;;5046324;28;20052;-59
2023/11/04 05:01:56;;;;;;;1.92;1.50;;;;;;;;;;5048721;28;20041;-60
2023/11/04 05:04:42;;;;;;;3.38;2.28;;;;;;;;;;5043136;28;20037;-59
2023/11/04 05:07:28;;;;;;;2.05;1.50;;;;;;;;;;5047342;28;20429;-60
2023/11/04 05:10:14;;;;;;;2.72;1.80;;;;;;;;;;5044145;28;20045;-59
2023/11/04 05:13:02;;;;;;;2.35;1.77;;;;;;;;;;5046511;28;20107;-58
2023/11/04 05:15:48;;;;;;;3.33;2.08;;;;;;;;;;5047660;28;20048;-58
2023/11/04 05:18:34;;;;;;;3.05;1.75;;;;;;;;;;5042834;28;20041;-59
2023/11/04 05:21:23;;;;;;;2.72;2.03;;;;;;;;;;5047198;28;20529;-58
2023/11/04 05:24:09;;;;;;;3.78;2.20;;;;;;;;;;5046617;28;20067;-58
2023/11/04 05:26:55;;;;;;;2.92;1.60;;;;;;;;;;5048178;28;20059;-59
2023/11/04 05:29:41;;;;;;;3.00;1.73;;;;;;;;;;5042010;28;20048;-58
2023/11/04 05:32:27;;;;;;;2.10;1.50;;;;;;;;;;5047886;28;20387;-58
2023/11/04 05:35:13;;;;;;;1.90;1.70;;;;;;;;;;5046918;28;20045;-58
2023/11/04 05:37:59;;;;;;;1.60;1.20;;;;;;;;;;5046552;28;20056;-59
2023/11/04 05:40:45;;;;;;;1.55;1.35;;;;;;;;;;5042467;28;20059;-59
2023/11/04 05:43:31;;;;;;;1.60;1.50;;;;;;;;;;5044380;28;20040;-58
2023/11/04 05:46:17;;;;;;;1.75;1.50;;;;;;;;;;5046948;28;20048;-58
2023/11/04 05:49:03;;;;;;;2.80;1.90;;;;;;;;;;5045847;28;20052;-59
2023/11/04 05:51:49;;;;;;;2.67;1.60;;;;;;;;;;5044756;28;20390;-59
2023/11/04 05:54:36;;;;;;;2.28;1.63;;;;;;;;;;5046128;28;20041;-57
2023/11/04 05:57:22;;;;;;;2.85;1.75;;;;;;;;;;5045228;28;20044;-58
2023/11/04 06:00:12;;;;;;;2.72;1.65;;;;;;;;;;5023832;28;20586;-59
2023/11/04 06:02:57;;;;;;;2.80;1.50;;;;;;;;;;5043086;28;20045;-58
2023/11/04 06:05:44;;;;;;;2.40;1.60;;;;;;;;;;5042038;28;20379;-58
2023/11/04 06:08:30;;;;;;;2.00;1.40;;;;;;;;;;5045245;28;20048;-58
2023/11/04 06:11:16;;;;;;;2.25;1.65;;;;;;;;;;5046316;28;20040;-58
2023/11/04 06:14:02;;;;;;;2.35;1.80;;;;;;;;;;5044116;28;20048;-57
2023/11/04 06:16:49;;;;;;;3.10;1.70;;;;;;;;;;5040534;28;20036;-57
2023/11/04 06:19:35;;;;;;;2.03;1.67;;;;;;;;;;5042442;28;20040;-58
2023/11/04 06:22:20;;;;;;;2.25;1.40;;;;;;;;;;5041632;28;20518;-58
2023/11/04 06:25:07;;;;;;;2.38;1.40;;;;;;;;;;5044839;28;20071;-58
2023/11/04 06:27:53;;;;;;;2.70;1.40;;;;;;;;;;5045272;28;20040;-59
2023/11/04 06:30:38;;;;;;;1.35;1.10;;;;;;;;;;5040812;28;20048;-58
2023/11/04 06:33:24;;;;;;;1.80;1.30;;;;;;;;;;5046481;28;20045;-57
2023/11/04 06:36:11;;;;;;;2.05;1.40;;;;;;;;;;5045776;28;20045;-58
2023/11/04 06:38:57;;;;;;;1.92;1.20;;;;;;;;;;5044365;28;20533;-58
2023/11/04 06:41:43;;;;;;;2.13;1.40;;;;;;;;;;5044265;28;20059;-59
2023/11/04 06:44:29;;;;;;;2.20;1.30;;;;;;;;;;5045777;28;20041;-58
2023/11/04 06:47:15;;;;;;;1.27;0.85;;;;;;;;;;5046060;28;20052;-57
2023/11/04 06:50:03;;;;;;;2.35;1.05;;;;;;;;;;5041182;28;20052;-58
2023/11/04 06:52:32;;;;;;;1.27;1.05;;;;;;;;;;5047706;28;20048;-58
2023/11/04 06:54:59;;;;;;;1.50;1.08;;;;;;;;;;5047154;28;20029;-58
2023/11/04 06:57:25;;;;;;;1.98;1.40;;;;;;;;;;5045273;28;20041;-58
2023/11/04 06:59:52;;;;;;;2.15;1.27;;;;;;;;;;5041554;28;20068;-58
2023/11/04 07:02:20;;;;;;;3.25;1.33;;;;;;;;;;5044674;28;20036;-57
2023/11/04 07:04:46;;;;;;;3.10;1.65;;;;;;;;;;5047324;28;20411;-58
2023/11/04 07:07:12;;;;;;;3.20;1.50;;;;;;;;;;5046621;28;20037;-58
2023/11/04 07:09:38;;;;;;;3.28;1.90;;;;;;;;;;5045140;28;20029;-58
2023/11/04 07:12:04;;;;;;;3.42;1.77;;;;;;;;;;5049622;28;20049;-58
2023/11/04 07:14:31;;;;;;;1.70;1.40;;;;;;;;;;5049151;28;20040;-58
2023/11/04 07:16:58;;;;;;;2.00;1.80;;;;;;;;;;5050680;28;20052;-58
2023/11/04 07:19:24;;;;;;;3.17;2.28;;;;;;;;;;5047753;28;20037;-58
2023/11/04 07:21:50;;;;;;;5.38;3.35;;;;;;;;;;5048568;28;20025;-58
2023/11/04 07:24:18;;;;;;;2.30;1.90;;;;;;;;;;5048349;28;20048;-58
2023/11/04 07:26:46;;;;;;;4.03;2.38;;;;;;;;;;5043846;28;20044;-57
2023/11/04 07:29:12;;;;;;;7.45;3.28;;;;;;;;;;5048351;28;20053;-58
2023/11/04 07:31:38;;;;;;;6.03;3.28;;;;;;;;;;5048395;28;20037;-57
2023/11/04 07:34:05;;;;;;;4.75;2.10;;;;;;;;;;5050121;28;20049;-58
2023/11/04 07:36:31;;;;;;;2.75;1.80;;;;;;;;;;5051218;28;20049;-59
2023/11/04 07:38:57;;;;;;;2.20;1.88;;;;;;;;;;5049113;28;20045;-59
2023/11/04 07:41:23;;;;;;;10.98;4.40;;;;;;;;;;5047765;28;20525;-59
2023/11/04 07:43:49;;;;;;;5.05;2.63;;;;;;;;;;5043214;28;20052;-57
2023/11/04 07:46:16;;;;;;;3.90;2.03;;;;;;;;;;5048341;28;20056;-58
2023/11/04 07:48:42;;;;;;;7.80;4.20;;;;;;;;;;5045407;28;20041;-57
2023/11/04 07:51:11;;;;;;;2.50;1.70;;;;;;;;;;5044710;28;20029;-59
2023/11/04 07:53:37;;;;;;;2.72;1.70;;;;;;;;;;5041984;28;20047;-60
2023/11/04 07:56:04;;;;;;;2.55;2.03;;;;;;;;;;5043833;28;20502;-57
2023/11/04 07:58:31;;;;;;;3.22;1.90;;;;;;;;;;5048773;28;20037;-57
2023/11/04 08:00:57;;;;;;;3.35;2.20;;;;;;;;;;5050796;28;20072;-58
2023/11/04 08:03:23;;;;;;;2.53;1.52;;;;;;;;;;5050426;28;20036;-58
2023/11/04 08:05:49;;;;;;;2.67;1.50;;;;;;;;;;5050468;28;20068;-58
2023/11/04 08:08:16;;;;;;;5.38;2.30;;;;;;;;;;5048921;28;20060;-58
2023/11/04 08:10:42;;;;;;;3.22;1.70;;;;;;;;;;5050507;28;20147;-58
2023/11/04 08:13:09;;;;;;;3.50;1.75;;;;;;;;;;5047899;28;20049;-57
2023/11/04 08:15:36;;;;;;;3.70;1.67;;;;;;;;;;5045251;28;20051;-58
2023/11/04 08:18:02;;;;;;;3.47;1.50;;;;;;;;;;5049117;28;20041;-57
2023/11/04 08:20:28;;;;;;;2.20;1.63;;;;;;;;;;5050319;28;20045;-58
2023/11/04 08:22:54;;;;;;;3.08;1.70;;;;;;;;;;5050469;28;20056;-58
2023/11/04 08:25:21;;;;;;;1.95;1.38;;;;;;;;;;5049131;28;20049;-58
2023/11/04 08:27:47;;;;;;;3.20;1.73;;;;;;;;;;5049585;28;20048;-58
2023/11/04 08:30:13;;;;;;;2.42;1.95;;;;;;;;;;5048577;28;20057;-58
2023/11/04 08:32:40;;;;;;;3.28;1.95;;;;;;;;;;5050579;28;20049;-59
2023/11/04 08:35:07;;;;;;;4.22;1.65;;;;;;;;;;5049308;28;20040;-58
2023/11/04 08:37:34;;;;;;;3.35;2.42;;;;;;;;;;5049609;28;20040;-58
2023/11/04 08:40:00;;;;;;;2.17;1.90;;;;;;;;;;5049797;28;20033;-58
2023/11/04 08:42:27;;;;;;;2.10;1.90;;;;;;;;;;5048827;28;20029;-59
2023/11/04 08:44:53;;;;;;;2.22;1.60;;;;;;;;;;5046473;28;20059;-57
2023/11/04 08:47:19;;;;;;;2.75;2.20;;;;;;;;;;5049563;28;20071;-58
2023/11/04 08:49:45;;;;;;;4.00;3.10;;;;;;;;;;5046035;28;20056;-57
2023/11/04 08:52:12;;;;;;;2.00;1.80;;;;;;;;;;5042780;28;21326;-60
2023/11/04 08:54:40;;;;;;;1.92;1.55;;;;;;;;;;5042997;28;20434;-60
2023/11/04 08:57:06;;;;;;;1.92;1.60;;;;;;;;;;5044447;28;20033;-58
2023/11/04 08:59:33;;;;;;;2.72;1.63;;;;;;;;;;5041496;28;20037;-58
2023/11/04 09:02:00;;;;;;;3.28;1.90;;;;;;;;;;5038922;28;20048;-59
2023/11/04 09:04:27;;;;;;;2.00;1.50;;;;;;;;;;5043821;28;20045;-59
2023/11/04 09:06:54;;;;;;;2.65;1.75;;;;;;;;;;5048635;28;20052;-59
2023/11/04 09:09:22;;;;;;;2.70;1.40;;;;;;;;;;5047780;28;20037;-61
2023/11/04 09:11:48;;;;;;;1.70;1.50;;;;;;;;;;5050139;28;20402;-60
2023/11/04 09:14:15;;;;;;;2.03;1.40;;;;;;;;;;5044701;28;20057;-61
2023/11/04 09:16:42;;;;;;;1.95;1.42;;;;;;;;;;5049014;28;20033;-60
2023/11/04 09:19:08;;;;;;;1.55;1.30;;;;;;;;;;5041417;28;20045;-60
2023/11/04 09:21:35;;;;;;;1.77;1.27;;;;;;;;;;5045662;28;20036;-60
2023/11/04 09:24:01;;;;;;;1.50;1.40;;;;;;;;;;5045985;28;20040;-61
2023/11/04 09:26:27;;;;;;;1.48;1.38;;;;;;;;;;5043956;28;20041;-59
2023/11/04 09:28:53;;;;;;;1.90;1.38;;;;;;;;;;5043897;28;20045;-59
2023/11/04 09:31:20;;;;;;;3.28;1.30;;;;;;;;;;5043011;28;20100;-58
2023/11/04 09:33:46;;;;;;;3.53;1.20;;;;;;;;;;5042422;28;20036;-58
2023/11/04 09:36:12;;;;;;;1.17;0.90;;;;;;;;;;5040724;28;20076;-61
2023/11/04 09:38:39;;;;;;;1.98;1.20;;;;;;;;;;5040874;28;20615;-58
2023/11/04 09:41:05;;;;;;;1.17;0.93;;;;;;;;;;5045044;28;20032;-57
2023/11/04 09:43:32;;;;;;;1.27;1.17;;;;;;;;;;5039532;28;22095;-61
2023/11/04 09:46:01;;;;;;;2.30;1.13;;;;;;;;;;5039412;28;20052;-59
2023/11/04 09:48:29;;;;;;;1.25;0.80;;;;;;;;;;5043380;28;20064;-57
2023/11/04 09:51:00;;;;;;;1.33;0.90;;;;;;;;;;5044931;28;20036;-58
2023/11/04 09:53:27;;;;;;;0.88;0.77;;;;;;;;;;5045143;28;20517;-58
2023/11/04 09:55:54;;;;;;;0.80;0.80;;;;;;;;;;5040840;28;20029;-57
2023/11/04 09:58:20;;;;;;;0.80;0.80;;;;;;;;;;5039965;28;20056;-57
2023/11/04 10:00:46;;;;;;;0.65;0.65;;;;;;;;;;5045859;28;20045;-58
2023/11/04 10:03:13;;;;;;;0.60;0.60;;;;;;;;;;5043288;28;20052;-58
2023/11/04 10:05:39;;;;;;;0.80;0.80;;;;;;;;;;5030979;28;20045;-59
2023/11/04 10:08:05;;;;;;;1.58;0.93;;;;;;;;;;4998401;28;20048;-57
2023/11/04 10:10:33;;;;;;;1.45;1.00;;;;;;;;;;5041883;28;20056;-58
2023/11/04 10:12:59;;;;;;;1.38;0.75;;;;;;;;;;5042233;28;20056;-58
2023/11/04 10:15:25;;;;;;;1.55;0.90;;;;;;;;;;5045534;28;21190;-58
2023/11/04 10:17:51;;;;;;;2.13;1.25;;;;;;;;;;5046717;28;20045;-58
2023/11/04 10:20:20;;;;;;;0.65;0.60;;;;;;;;;;5045858;28;20506;-59
2023/11/04 10:22:47;;;;;;;0.50;0.50;;;;;;;;;;5048245;28;20391;-57
2023/11/04 10:25:14;;;;;;;0.85;0.70;;;;;;;;;;5041629;28;20056;-59
2023/11/04 10:27:40;;;;;;;0.68;0.68;;;;;;;;;;5045129;28;20037;-57
2023/11/04 10:30:08;;;;;;;2.05;0.50;;;;;;;;;;5046678;28;20053;-58
2023/11/04 10:32:38;;;;;;;1.15;0.50;;;;;;;;;;5045484;28;20056;-60
2023/11/04 10:35:12;;;;;;;2.70;0.60;;;;;;;;;;5046423;28;20041;-57
2023/11/04 10:37:43;;;;;;;0.98;0.60;;;;;;;;;;5045361;28;20028;-58
2023/11/04 10:40:11;;;;;;;0.47;0.47;;;;;;;;;;5042432;28;20032;-58
2023/11/04 10:42:57;;;;;;;0.80;0.50;;;;;;;;;;5036586;28;20402;-58
2023/11/04 10:45:41;;;;;;;1.00;0.73;;;;;;;;;;5044057;28;20056;-59
2023/11/04 10:48:36;;;;;;;1.42;1.00;;;;;;;;;;5045859;28;20052;-59
2023/11/04 10:51:18;;;;;;;6.28;3.72;;;;;;;;;;5044535;28;20049;-56
2023/11/04 10:54:01;;;;;;;0.45;0.40;;;;;;;;;;5046832;28;20033;-59
2023/11/04 10:56:36;;;;;;;1.45;0.50;;;;;;;;;;5046517;28;20060;-57
2023/11/04 10:59:14;;;;;;;1.80;0.80;;;;;;;;;;5042136;28;20033;-55
2023/11/04 11:01:42;;;;;;;0.93;0.82;;;;;;;;;;5041140;28;20032;-55
2023/11/04 11:04:09;;;;;;;2.55;1.10;;;;;;;;;;5044800;28;20048;-57
2023/11/04 11:06:36;;;;;;;0.50;0.50;;;;;;;;;;5047403;28;20059;-56
2023/11/04 11:09:04;;;;;;;0.88;0.60;;;;;;;;;;5041609;28;20516;-56
2023/11/04 11:11:48;;;;;;;3.53;0.73;;;;;;;;;;5041859;28;20524;-58
2023/11/04 11:14:15;;;;;;;7.95;2.33;;;;;;;;;;5042940;28;20028;-58
2023/11/04 11:16:42;;;;;;;3.30;0.93;;;;;;;;;;5038295;28;20037;-56
2023/11/04 11:19:11;;;;;;;1.00;0.70;;;;;;;;;;5038833;28;20048;-58
2023/11/04 11:21:49;;;;;;;0.80;0.80;;;;;;;;;;5048052;28;20028;-59
2023/11/04 11:24:16;;;;;;;0.65;0.65;;;;;;;;;;5045242;28;20041;-58
2023/11/04 11:26:47;;;;;;;2.38;0.90;;;;;;;;;;5044708;28;20039;-58
2023/11/04 11:29:23;;;;;;;0.80;0.80;;;;;;;;;;5044715;28;20052;-58
2023/11/04 11:31:51;;;;;;;0.82;0.75;;;;;;;;;;5046908;28;20530;-58
2023/11/04 11:34:20;;;;;;;1.27;0.70;;;;;;;;;;5043546;28;20041;-59
2023/11/04 11:36:47;;;;;;;1.13;0.80;;;;;;;;;;5042109;28;20044;-59
2023/11/04 11:39:14;;;;;;;0.77;0.60;;;;;;;;;;5045158;28;20045;-59
2023/11/04 11:41:43;;;;;;;1.52;1.02;;;;;;;;;;5045205;28;20037;-60
2023/11/04 11:44:12;;;;;;;1.00;0.90;;;;;;;;;;5040782;28;20045;-58
2023/11/04 11:46:41;;;;;;;2.43;0.83;;;;;;;;;;5046885;28;20052;-61
2023/11/04 11:49:08;;;;;;;0.85;0.82;;;;;;;;;;5042709;28;20307;-60
2023/11/04 11:51:35;;;;;;;1.10;0.80;;;;;;;;;;5045581;28;20397;-59
2023/11/04 11:54:02;;;;;;;1.60;0.80;;;;;;;;;;5048668;28;20055;-58
2023/11/04 11:56:32;;;;;;;1.75;0.50;;;;;;;;;;5050301;28;20033;-59
2023/11/04 11:59:06;;;;;;;0.90;0.70;;;;;;;;;;5048941;28;20036;-59
2023/11/04 12:01:33;;;;;;;0.70;0.68;;;;;;;;;;5049602;28;20390;-60
2023/11/04 12:04:01;;;;;;;1.02;0.80;;;;;;;;;;5050069;28;20102;-59
2023/11/04 12:06:28;;;;;;;0.80;0.80;;;;;;;;;;5044125;28;20045;-59
2023/11/04 12:08:56;;;;;;;1.20;0.93;;;;;;;;;;5049840;28;20041;-61
2023/11/04 12:11:25;;;;;;;1.15;0.95;;;;;;;;;;5050070;28;20048;-59
2023/11/04 12:13:51;;;;;;;0.75;0.60;;;;;;;;;;5047531;28;20055;-59
2023/11/04 12:16:17;;;;;;;2.10;1.17;;;;;;;;;;5043740;28;20063;-60
2023/11/04 12:18:47;;;;;;;1.75;1.10;;;;;;;;;;5043856;28;20053;-59
2023/11/04 12:21:16;;;;;;;;;;;;;;;;;;5045029;28;20048;-60
2023/11/04 12:23:42;;;;;;;1.60;1.07;;;;;;;;;;5041051;28;19946;-59
2023/11/04 12:26:09;;;;;;;0.88;0.73;;;;;;;;;;5039520;28;20753;-60
2023/11/04 12:28:39;;;;;;;2.75;0.75;;;;;;;;;;5034769;28;20053;-59
2023/11/04 12:31:05;;;;;;;1.75;0.85;;;;;;;;;;5037454;28;20041;-59
2023/11/04 12:33:37;;;;;;;2.20;1.20;;;;;;;;;;5046882;28;20422;-60
2023/11/04 12:36:11;;;;;;;1.80;1.05;;;;;;;;;;5040801;28;20037;-60
2023/11/04 12:38:39;;;;;;;1.60;0.80;;;;;;;;;;5042381;28;20401;-59
2023/11/04 12:41:06;;;;;;;0.85;0.70;;;;;;;;;;5050192;28;20257;-58
2023/11/04 12:43:32;;;;;;;0.63;0.60;;;;;;;;;;5042251;28;20395;-58
2023/11/04 12:45:59;;;;;;;1.20;0.70;;;;;;;;;;5035768;28;20053;-58
2023/11/04 12:48:25;;;;;;;0.93;0.70;;;;;;;;;;5041059;28;20049;-58
2023/11/04 12:50:52;;;;;;;1.45;0.70;;;;;;;;;;5046029;28;20037;-59
2023/11/04 12:53:19;;;;;;;1.02;0.80;;;;;;;;;;5041457;28;20051;-58
2023/11/04 12:55:45;;;;;;;1.58;0.70;;;;;;;;;;5049911;28;20033;-60
2023/11/04 12:58:11;;;;;;;0.80;0.55;;;;;;;;;;5039259;28;20044;-59
2023/11/04 13:00:38;;;;;;;1.60;1.00;;;;;;;;;;5038278;28;20750;-59
2023/11/04 13:03:05;;;;;;;1.02;0.85;;;;;;;;;;5041476;28;20557;-59
2023/11/04 13:05:31;;;;;;;2.80;1.25;;;;;;;;;;5038980;28;20053;-60
2023/11/04 13:07:57;;;;;;;2.35;1.00;;;;;;;;;;5041788;28;20060;-59
2023/11/04 13:10:23;;;;;;;1.15;0.70;;;;;;;;;;5040665;28;20048;-58
2023/11/04 13:12:49;;;;;;;0.85;0.70;;;;;;;;;;5040353;28;20406;-59
2023/11/04 13:15:16;;;;;;;1.23;0.98;;;;;;;;;;5042807;28;20060;-58
2023/11/04 13:17:43;;;;;;;4.05;1.50;;;;;;;;;;5043035;28;20041;-60
2023/11/04 13:20:10;;;;;;;1.42;0.60;;;;;;;;;;5037793;28;20044;-59
2023/11/04 13:22:37;;;;;;;0.55;0.50;;;;;;;;;;5040310;28;20075;-59
2023/11/04 13:25:05;;;;;;;2.83;1.42;;;;;;;;;;5037396;28;20494;-59
2023/11/04 13:27:31;;;;;;;4.20;1.50;;;;;;;;;;5038514;28;20053;-60
2023/11/04 13:29:57;;;;;;;1.92;0.50;;;;;;;;;;5043573;28;20044;-58
2023/11/04 13:32:23;;;;;;;1.30;0.60;;;;;;;;;;5041742;28;20052;-58
2023/11/04 13:34:50;;;;;;;0.68;0.68;;;;;;;;;;5048455;28;20040;-59
2023/11/04 13:37:16;;;;;;;0.80;0.70;;;;;;;;;;5047611;28;20048;-59
2023/11/04 13:39:43;;;;;;;1.27;0.60;;;;;;;;;;5044108;28;20551;-59
2023/11/04 13:42:12;;;;;;;1.67;1.00;;;;;;;;;;5045279;28;20037;-59
2023/11/04 13:44:41;;;;;;;1.90;1.23;;;;;;;;;;5043073;28;20123;-57
2023/11/04 13:47:07;;;;;;;1.35;0.80;;;;;;;;;;5044496;28;20048;-59
2023/11/04 13:49:33;;;;;;;1.42;0.77;;;;;;;;;;5047345;28;20033;-60
2023/11/04 13:52:00;;;;;;;1.33;0.90;;;;;;;;;;5048276;28;20409;-59
2023/11/04 13:54:26;;;;;;;1.42;0.90;;;;;;;;;;5038593;28;20045;-59
2023/11/04 13:56:54;;;;;;;4.78;1.98;;;;;;;;;;5042102;28;20041;-60
2023/11/04 13:59:20;;;;;;;1.45;0.63;;;;;;;;;;5040238;28;20056;-60
2023/11/04 14:01:46;;;;;;;1.45;0.82;;;;;;;;;;5037209;28;20038;-60
2023/11/04 14:04:13;;;;;;;2.20;0.90;;;;;;;;;;5041898;28;20501;-60
2023/11/04 14:06:39;;;;;;;0.95;0.55;;;;;;;;;;5042858;28;20063;-60
2023/11/04 14:09:06;;;;;;;0.95;0.60;;;;;;;;;;5041052;28;20053;-61
2023/11/04 14:11:32;;;;;;;1.95;1.30;;;;;;;;;;5047478;28;20037;-62
2023/11/04 14:13:58;;;;;;;1.38;0.80;;;;;;;;;;5042282;28;20040;-59
2023/11/04 14:16:26;;;;;;;1.05;0.80;;;;;;;;;;5035919;28;20048;-60
2023/11/04 14:18:53;;;;;;;3.03;1.58;;;;;;;;;;5041758;28;20037;-60
2023/11/04 14:21:19;;;;;;;2.67;1.17;;;;;;;;;;5040436;28;20049;-59
2023/11/04 14:23:46;;;;;;;1.77;0.50;;;;;;;;;;5048164;28;20036;-60
2023/11/04 14:26:13;;;;;;;3.13;0.88;;;;;;;;;;5047685;28;20048;-58
2023/11/04 14:28:39;;;;;;;2.00;1.00;;;;;;;;;;5038548;28;20045;-61
2023/11/04 14:31:05;;;;;;;2.50;1.20;;;;;;;;;;5046232;28;20083;-59
2023/11/04 14:33:31;;;;;;;3.08;1.27;;;;;;;;;;5047100;28;20037;-59
2023/11/04 14:35:58;;;;;;;4.30;1.65;;;;;;;;;;5046732;28;20040;-59
2023/11/04 14:38:24;;;;;;;0.98;0.60;;;;;;;;;;5043652;28;20033;-59
2023/11/04 14:40:51;;;;;;;0.73;0.73;;;;;;;;;;5042681;28;20033;-59
2023/11/04 14:43:17;;;;;;;3.28;0.82;;;;;;;;;;5046671;28;20043;-58
2023/11/04 14:45:43;;;;;;;1.80;1.05;;;;;;;;;;5046753;28;20498;-60
2023/11/04 14:48:09;;;;;;;0.90;0.60;;;;;;;;;;5046655;28;20383;-60
2023/11/04 14:50:38;;;;;;;1.20;0.70;;;;;;;;;;5041522;28;20108;-59
2023/11/04 14:53:04;;;;;;;0.50;0.50;;;;;;;;;;5040573;28;20415;-59
2023/11/04 14:55:30;;;;;;;2.85;1.00;;;;;;;;;;5040631;28;20037;-59
2023/11/04 14:57:56;;;;;;;2.70;1.10;;;;;;;;;;5040824;28;20040;-59
2023/11/04 15:00:22;;;;;;;1.23;0.90;;;;;;;;;;5035863;28;21271;-61
2023/11/04 15:02:49;;;;;;;0.60;0.50;;;;;;;;;;5039859;28;20059;-59
2023/11/04 15:05:16;;;;;;;0.80;0.43;;;;;;;;;;5042534;28;20049;-59
2023/11/04 15:07:42;;;;;;;1.25;0.80;;;;;;;;;;5041603;28;20049;-59
2023/11/04 15:10:08;;;;;;;1.27;0.93;;;;;;;;;;5047162;28;20041;-59
2023/11/04 15:12:36;;;;;;;2.30;0.80;;;;;;;;;;5042479;28;20040;-60
2023/11/04 15:15:04;;;;;;;3.80;1.13;;;;;;;;;;5038426;28;20053;-58
2023/11/04 15:17:30;;;;;;;0.60;0.50;;;;;;;;;;5041416;28;20032;-59
2023/11/04 15:19:57;;;;;;;1.70;0.85;;;;;;;;;;5042331;28;20132;-59
2023/11/04 15:22:25;;;;;;;1.60;1.10;;;;;;;;;;5044989;28;20040;-58
2023/11/04 15:24:51;;;;;;;2.22;0.93;;;;;;;;;;5043617;28;20048;-58
2023/11/04 15:27:18;;;;;;;1.00;0.90;;;;;;;;;;5044709;28;20116;-58